Other Surface Observations
Issued by NWS Missoula, MT

Home | Current Version | Previous Version | Text Only | Print | Product List | Glossary On
Versions: 1 2 3 4 5 6 7 8 9 10 11 12 13 14 15 16 17 18 19 20 21 22 23 24 25 26 27 28 29 30 31 32 33 34 35 36 37 38 39 40 41 42 43 44 45 46 47 48 49 50
000
SXUS55 KMSO 280623
OSOMSO
MONTANA AWOS SUMMARY
NATIONAL WEATHER SERVICE MISSOULA MT
1223 AM MDT TUE JUL 28 2015

Montana AWOS Reports

LAUREL      |K6S8 280615Z AUTO 24017G23KT 40SM 13/05 A2998 RMK AO1 T01280050
TWIN BRIDGES|K7S1 280615Z AUTO 09009KT 40SM 07/03 A3017 RMK AO1 T00720033
ROUNDUP     |KRPX 280615Z AUTO 24014KT 40SM 12/07 A2986 RMK AO1 T01220067




USA.gov is the U.S. government's official web portal to all federal, state and local government web resources and services.